Time;durP1;ratioP1;P1;durP2;ratioP2;P2;SDS_P1;SDS_P2;PMS_P1;PMS_P2;Temp;Humidity;BMP_temperature;BMP_pressure;BME280_temperature;BME280_humidity;BME280_pressure;Samples;Min_cycle;Max_cycle;Signal;HPM_P1;HPM_P2
2024/01/26 00:00:15;;;;;;;;;9.00;9.00;;;;;11.52;100.00;102443.44;4960291;28;45864;-79
2024/01/26 00:02:41;;;;;;;;;12.00;10.33;;;;;11.47;100.00;102444.94;4970333;28;45569;-78
2024/01/26 00:05:06;;;;;;;;;11.67;8.33;;;;;11.57;100.00;102473.69;4976272;28;55204;-78
2024/01/26 00:07:32;;;;;;;;;12.00;9.00;;;;;11.37;100.00;102442.69;4954418;28;45434;-78
2024/01/26 00:09:57;;;;;;;;;12.33;8.67;;;;;11.53;100.00;102471.72;4976769;28;45448;-77
2024/01/26 00:12:22;;;;;;;;;5.67;3.67;;;;;11.41;100.00;102442.91;4975625;28;45483;-78
2024/01/26 00:14:48;;;;;;;;;9.33;8.33;;;;;11.40;100.00;102446.41;4977489;28;45491;-78
2024/01/26 00:17:13;;;;;;;;;11.00;9.00;;;;;11.23;100.00;102410.31;4973339;28;45338;-77
2024/01/26 00:19:39;;;;;;;;;10.67;8.00;;;;;11.07;100.00;102386.59;4977403;28;45339;-78
2024/01/26 00:22:04;;;;;;;;;11.00;11.00;;;;;11.43;100.00;102437.72;4974350;28;45554;-78
2024/01/26 00:24:29;;;;;;;;;10.33;8.67;;;;;11.30;100.00;102408.84;4973127;28;45618;-77
2024/01/26 00:26:55;;;;;;;;;10.67;7.00;;;;;11.39;100.00;102430.44;4975329;28;55060;-78
2024/01/26 00:29:21;;;;;;;;;9.67;8.00;;;;;11.43;100.00;102438.63;4976729;28;45357;-78
2024/01/26 00:31:46;;;;;;;;;13.00;11.33;;;;;11.35;100.00;102412.63;4974987;28;45610;-78
2024/01/26 00:34:11;;;;;;;;;13.25;11.50;;;;;11.39;100.00;102423.41;4956948;28;45368;-78
2024/01/26 00:36:37;;;;;;;;;10.50;9.00;;;;;11.39;100.00;102433.09;4975625;28;45432;-77
2024/01/26 00:39:02;;;;;;;;;12.33;10.33;;;;;11.45;100.00;102446.63;4960133;28;45262;-77
2024/01/26 00:41:28;;;;;;;;;15.67;11.00;;;;;11.44;100.00;102442.16;4976078;28;45363;-78
2024/01/26 00:43:53;;;;;;;;;11.00;10.00;;;;;11.50;100.00;102446.84;4972419;28;45501;-78
2024/01/26 00:46:20;;;;;;;;;9.33;7.33;;;;;11.45;100.00;102432.47;4975857;28;45415;-78
2024/01/26 00:48:45;;;;;;;;;7.67;7.67;;;;;11.31;100.00;102400.94;4971335;28;45400;-78
2024/01/26 00:51:11;;;;;;;;;8.33;7.67;;;;;11.43;100.00;102416.53;4976028;28;45517;-78
2024/01/26 00:53:36;;;;;;;;;9.00;9.00;;;;;11.48;100.00;102414.97;4971963;28;45520;-78
2024/01/26 00:56:02;;;;;;;;;11.67;11.00;;;;;11.55;100.00;102422.38;4976608;28;45606;-78
2024/01/26 00:58:27;;;;;;;;;10.00;10.00;;;;;11.32;100.00;102372.75;4954802;28;45832;-78
2024/01/26 01:00:52;;;;;;;;;12.00;11.00;;;;;11.48;100.00;102401.72;4976377;28;47011;-77
2024/01/26 01:03:19;;;;;;;;;9.33;9.33;;;;;11.43;100.00;102375.06;4948688;28;46981;-77
2024/01/26 01:05:44;;;;;;;;;11.33;9.67;;;;;11.35;100.00;102362.31;4956949;28;45513;-77
2024/01/26 01:08:10;;;;;;;;;11.00;7.00;;;;;11.45;100.00;102383.06;4951654;28;45203;-77
2024/01/26 01:10:36;;;;;;;;;11.33;9.67;;;;;11.39;100.00;102364.25;4964073;28;45548;-77
2024/01/26 01:13:04;;;;;;;;;16.33;8.33;;;;;11.31;100.00;102361.25;4955028;28;47077;-77
2024/01/26 01:15:30;;;;;;;;;13.67;8.33;;;;;11.51;100.00;102393.03;4956460;28;45575;-76
2024/01/26 01:17:55;;;;;;;;;8.25;8.25;;;;;11.57;100.00;102391.59;4953296;28;45361;-77
2024/01/26 01:20:21;;;;;;;;;15.25;13.25;;;;;11.36;100.00;102348.22;4954323;28;57950;-77
2024/01/26 01:22:47;;;;;;;;;11.33;11.33;;;;;11.47;100.00;102354.91;4954430;28;45429;-77
2024/01/26 01:25:12;;;;;;;;;15.00;12.67;;;;;11.59;100.00;102370.44;4955308;28;45484;-77
2024/01/26 01:27:38;;;;;;;;;9.67;9.67;;;;;11.74;100.00;102399.41;4953659;28;45344;-76
2024/01/26 01:30:08;;;;;;;;;14.00;11.33;;;;;11.41;100.00;102341.41;4956710;28;45595;-76
2024/01/26 01:32:34;;;;;;;;;14.33;11.33;;;;;11.76;100.00;102413.59;4957516;28;45524;-77
2024/01/26 01:34:59;;;;;;;;;16.00;11.67;;;;;11.76;100.00;102405.66;4959871;28;45460;-77
2024/01/26 01:37:25;;;;;;;;;11.67;11.67;;;;;11.78;100.00;102410.19;4956541;28;45750;-77
2024/01/26 01:39:51;;;;;;;;;12.67;12.00;;;;;11.74;100.00;102389.72;4956109;28;55962;-76
2024/01/26 01:42:16;;;;;;;;;11.67;10.00;;;;;11.70;100.00;102379.78;4957719;28;45427;-77
2024/01/26 01:44:44;;;;;;;;;13.00;12.00;;;;;11.77;100.00;102399.53;4956099;28;45565;-76
2024/01/26 01:47:11;;;;;;;;;12.33;10.00;;;;;11.46;100.00;102350.47;4955003;28;45547;-76
2024/01/26 01:49:41;;;;;;;;;16.67;12.67;;;;;11.82;100.00;102421.84;4958728;28;46397;-76
2024/01/26 01:52:13;;;;;;;;;13.33;10.67;;;;;11.75;100.00;102395.91;4957245;28;45725;-76
2024/01/26 01:54:40;;;;;;;;;12.00;11.00;;;;;11.77;100.00;102397.78;4957463;28;45540;-77
2024/01/26 01:57:05;;;;;;;;;13.00;12.00;;;;;11.53;100.00;102341.94;4954326;28;45539;-77
2024/01/26 01:59:31;;;;;;;;;10.00;9.00;;;;;11.65;100.00;102357.50;4959697;28;45617;-76
2024/01/26 02:01:57;;;;;;;;;16.33;13.33;;;;;11.56;100.00;102333.25;4954701;28;46862;-76
2024/01/26 02:04:22;;;;;;;;;12.33;11.33;;;;;11.88;100.00;102397.41;4975456;28;45437;-76
2024/01/26 02:07:01;;;;;;;;;12.00;10.00;;;;;11.96;100.00;102398.63;4977348;28;45404;-77
2024/01/26 02:09:27;;;;;;;;;11.33;7.33;;;;;11.81;100.00;102373.22;4975130;28;47048;-76
2024/01/26 02:11:53;;;;;;;;;12.00;11.00;;;;;11.91;100.00;102390.50;4977788;28;45509;-76
2024/01/26 02:14:19;;;;;;;;;9.67;8.67;;;;;11.94;100.00;102381.78;4957716;28;45381;-77
2024/01/26 02:16:59;;;;;;;;;10.33;10.00;;;;;12.01;100.00;102391.78;4976423;28;45401;-76
2024/01/26 02:19:25;;;;;;;;;13.00;12.67;;;;;11.91;100.00;102371.94;4954585;28;45789;-76
2024/01/26 02:21:51;;;;;;;;;11.00;9.33;;;;;11.89;100.00;102370.06;4976004;28;45492;-77
2024/01/26 02:24:17;;;;;;;;;11.00;9.67;;;;;12.07;100.00;102390.34;4978933;28;45476;-77
2024/01/26 02:26:42;;;;;;;;;9.67;9.00;;;;;11.85;100.00;102337.19;4977151;28;45354;-77
2024/01/26 02:29:08;;;;;;;;;12.00;10.67;;;;;12.04;100.00;102379.59;4979485;28;45360;-77
2024/01/26 02:31:33;;;;;;;;;9.67;8.67;;;;;12.09;100.00;102377.13;4987589;28;46259;-76
2024/01/26 02:33:58;;;;;;;;;8.67;7.67;;;;;11.98;100.00;102351.91;4974034;28;45819;-76
2024/01/26 02:36:27;;;;;;;;;8.00;8.00;;;;;12.03;100.00;102353.91;4971351;28;45341;-76
2024/01/26 02:38:53;;;;;;;;;12.00;9.33;;;;;11.98;100.00;102349.25;4973715;28;45331;-77
2024/01/26 02:41:18;;;;;;;;;11.00;8.67;;;;;11.90;100.00;102333.00;4978227;28;45508;-77
2024/01/26 02:43:43;;;;;;;;;8.00;8.00;;;;;11.91;100.00;102324.25;4955158;28;45470;-77
2024/01/26 02:46:11;;;;;;;;;8.33;8.33;;;;;12.14;100.00;102364.09;4977770;28;57334;-77
2024/01/26 02:48:38;;;;;;;;;12.33;11.00;;;;;12.03;100.00;102345.97;4973684;28;45368;-77
2024/01/26 02:51:03;;;;;;;;;10.67;8.00;;;;;12.04;100.00;102342.50;4978651;28;45795;-76
2024/01/26 02:53:28;;;;;;;;;12.33;8.33;;;;;11.88;100.00;102302.91;4960318;28;45381;-76
2024/01/26 02:55:54;;;;;;;;;7.33;7.33;;;;;11.96;100.00;102321.78;4977894;28;58749;-76
2024/01/26 02:58:19;;;;;;;;;9.33;8.33;;;;;11.96;100.00;102316.47;4974183;28;47602;-76
2024/01/26 03:00:45;;;;;;;;;6.67;5.00;;;;;11.96;100.00;102308.53;4978523;28;45725;-76
2024/01/26 03:03:10;;;;;;;;;9.00;7.33;;;;;12.08;100.00;102328.53;4969656;28;45251;-76
2024/01/26 03:05:35;;;;;;;;;7.33;5.67;;;;;12.04;100.00;102334.53;4960701;28;45334;-76
2024/01/26 03:08:01;;;;;;;;;9.00;9.00;;;;;12.13;100.00;102354.31;4973371;28;45535;-76
2024/01/26 03:10:27;;;;;;;;;10.00;10.00;;;;;12.10;100.00;102352.47;4984716;28;46537;-76
2024/01/26 03:12:52;;;;;;;;;7.33;7.33;;;;;12.02;100.00;102336.22;4973880;28;45856;-76
2024/01/26 03:15:18;;;;;;;;;11.00;9.33;;;;;11.90;100.00;102314.47;4975512;28;45446;-76
2024/01/26 03:17:43;;;;;;;;;9.33;7.00;;;;;12.16;100.00;102365.97;4954323;28;45965;-76
2024/01/26 03:20:08;;;;;;;;;7.00;6.00;;;;;12.11;100.00;102356.00;4974419;28;45399;-76
2024/01/26 03:22:34;;;;;;;;;11.00;8.67;;;;;11.88;100.00;102317.91;4976428;28;45508;-78
2024/01/26 03:24:59;;;;;;;;;12.67;10.00;;;;;12.01;100.00;102330.84;4977377;28;48242;-76
2024/01/26 03:27:25;;;;;;;;;9.00;7.00;;;;;12.11;100.00;102337.44;4974351;28;45579;-78
2024/01/26 03:29:50;;;;;;;;;12.00;10.00;;;;;12.17;100.00;102349.22;4972994;28;45420;-78
2024/01/26 03:32:16;;;;;;;;;10.33;10.33;;;;;11.97;100.00;102295.34;4974933;28;44872;-76
2024/01/26 03:34:41;;;;;;;;;10.00;8.67;;;;;12.14;100.00;102332.28;4972718;28;45406;-78
2024/01/26 03:37:06;;;;;;;;;12.67;11.00;;;;;12.14;100.00;102338.47;4973448;28;45540;-79
2024/01/26 03:39:32;;;;;;;;;7.00;7.00;;;;;12.17;100.00;102341.25;4979079;28;46069;-78
2024/01/26 03:41:57;;;;;;;;;10.33;9.00;;;;;12.12;100.00;102320.69;4971134;28;45437;-76
2024/01/26 03:44:23;;;;;;;;;11.33;11.00;;;;;12.17;100.00;102328.00;4973252;28;45324;-78
2024/01/26 03:46:48;;;;;;;;;11.67;10.67;;;;;12.07;100.00;102305.53;4973863;28;45756;-76
2024/01/26 03:49:14;;;;;;;;;12.67;11.67;;;;;12.19;100.00;102320.13;4975688;28;46696;-76
2024/01/26 03:51:39;;;;;;;;;11.00;10.00;;;;;12.20;100.00;102324.56;4958335;28;46125;-78
2024/01/26 03:54:05;;;;;;;;;3.00;3.00;;;;;12.09;100.00;102302.91;4973767;28;45584;-76
2024/01/26 03:56:30;;;;;;;;;8.00;8.00;;;;;12.13;100.00;102312.81;4976310;28;45458;-77
2024/01/26 03:58:55;;;;;;;;;13.33;12.33;;;;;12.15;100.00;102316.41;4973333;28;46550;-77
2024/01/26 04:01:21;;;;;;;;;12.33;10.00;;;;;12.20;100.00;102322.81;4943331;28;45477;-78
2024/01/26 04:03:47;;;;;;;;;11.33;10.00;;;;;12.06;100.00;102290.44;4954327;28;45459;-78
2024/01/26 04:06:12;;;;;;;;;9.00;9.00;;;;;12.17;100.00;102306.78;4957722;28;45408;-77
2024/01/26 04:08:38;;;;;;;;;10.00;6.00;;;;;12.12;100.00;102297.75;4933190;28;47786;-78
2024/01/26 04:11:04;;;;;;;;;9.33;9.33;;;;;12.23;100.00;102307.03;4964455;28;45357;-77
2024/01/26 04:13:29;;;;;;;;;11.67;6.00;;;;;12.12;100.00;102283.59;4952394;28;45681;-78
2024/01/26 04:15:54;;;;;;;;;8.67;8.67;;;;;12.20;100.00;102306.03;4957415;28;44907;-78
2024/01/26 04:18:20;;;;;;;;;11.33;10.33;;;;;12.12;100.00;102287.13;4935624;28;47199;-78
2024/01/26 04:20:47;;;;;;;;;9.00;7.00;;;;;11.97;100.00;102252.97;4958491;28;45581;-77
2024/01/26 04:23:12;;;;;;;;;11.00;11.00;;;;;12.19;100.00;102298.91;4955734;28;45771;-77
2024/01/26 04:25:37;;;;;;;;;9.00;9.00;;;;;12.07;100.00;102289.63;4956400;28;58669;-75
2024/01/26 04:28:03;;;;;;;;;10.67;10.67;;;;;12.17;100.00;102296.19;4948535;28;54241;-75
2024/01/26 04:30:29;;;;;;;;;6.00;6.00;;;;;12.19;100.00;102304.22;4957739;28;45482;-76
2024/01/26 04:32:54;;;;;;;;;10.00;8.00;;;;;12.11;100.00;102292.38;4958483;28;45459;-75
2024/01/26 04:35:19;;;;;;;;;6.67;6.67;;;;;12.15;100.00;102289.91;4962713;28;45295;-75
2024/01/26 04:37:45;;;;;;;;;9.33;6.33;;;;;12.19;100.00;102302.47;4962462;28;48068;-77
2024/01/26 04:40:10;;;;;;;;;10.00;9.00;;;;;12.12;100.00;102276.53;4960991;28;49206;-77
2024/01/26 04:42:36;;;;;;;;;9.00;6.00;;;;;12.20;100.00;102304.28;4933557;28;45411;-77
2024/01/26 04:45:01;;;;;;;;;10.33;9.00;;;;;12.19;100.00;102314.81;4957134;28;45728;-78
2024/01/26 04:47:27;;;;;;;;;14.00;11.67;;;;;12.14;100.00;102309.31;4954824;28;46448;-77
2024/01/26 04:49:52;;;;;;;;;11.00;10.00;;;;;11.80;100.00;102251.31;4957893;28;45422;-77
2024/01/26 04:52:18;;;;;;;;;11.33;11.00;;;;;12.24;100.00;102330.09;4951714;28;45121;-77
2024/01/26 04:54:43;;;;;;;;;11.00;9.00;;;;;12.11;100.00;102309.19;4957149;28;48882;-76
2024/01/26 04:57:08;;;;;;;;;13.00;10.33;;;;;12.16;100.00;102312.06;4952036;28;45387;-77
2024/01/26 04:59:34;;;;;;;;;9.33;8.33;;;;;12.28;100.00;102342.63;4957323;28;45407;-77
2024/01/26 05:01:59;;;;;;;;;12.33;11.00;;;;;12.18;100.00;102316.53;4954645;28;45363;-76
2024/01/26 05:04:25;;;;;;;;;9.67;9.00;;;;;12.15;100.00;102310.22;4960213;28;45614;-75
2024/01/26 05:06:50;;;;;;;;;11.67;9.33;;;;;12.26;100.00;102327.47;4961811;28;46637;-76
2024/01/26 05:09:15;;;;;;;;;12.33;9.33;;;;;12.30;100.00;102330.34;4964716;28;54123;-75
2024/01/26 05:11:40;;;;;;;;;11.67;11.00;;;;;12.20;100.00;102300.72;4966229;28;45397;-76
2024/01/26 05:14:06;;;;;;;;;10.00;10.00;;;;;12.24;100.00;102302.69;4966074;28;45462;-76
2024/01/26 05:16:31;;;;;;;;;16.33;8.33;;;;;12.05;100.00;102267.44;4966870;28;46120;-76
2024/01/26 05:18:57;;;;;;;;;10.33;10.00;;;;;12.34;100.00;102318.09;4965713;28;45356;-76
2024/01/26 05:21:22;;;;;;;;;11.00;7.33;;;;;12.31;100.00;102302.06;4958704;28;45399;-76
2024/01/26 05:23:47;;;;;;;;;9.33;7.67;;;;;12.26;100.00;102290.38;4961366;28;45268;-76
2024/01/26 05:26:13;;;;;;;;;8.67;8.67;;;;;12.37;100.00;102309.38;4959646;28;56996;-77
2024/01/26 05:28:39;;;;;;;;;10.33;9.67;;;;;12.39;100.00;102302.41;4953567;28;45649;-77
2024/01/26 05:31:05;;;;;;;;;13.33;8.67;;;;;12.41;100.00;102309.56;4960723;28;45342;-76
2024/01/26 05:33:30;;;;;;;;;6.33;5.67;;;;;12.18;100.00;102268.81;4958713;28;45011;-76
2024/01/26 05:35:55;;;;;;;;;12.00;8.33;;;;;12.30;100.00;102290.56;4958738;28;45694;-80
2024/01/26 05:38:21;;;;;;;;;11.33;7.67;;;;;12.27;100.00;102286.91;4956031;28;47566;-80
2024/01/26 05:40:47;;;;;;;;;11.67;9.33;;;;;12.48;100.00;102323.97;4961261;28;49866;-79
2024/01/26 05:43:12;;;;;;;;;7.00;7.00;;;;;12.32;100.00;102301.22;4958943;28;45576;-78
2024/01/26 05:45:37;;;;;;;;;7.00;6.67;;;;;12.38;100.00;102313.81;4960625;28;45358;-79
2024/01/26 05:48:03;;;;;;;;;9.00;7.00;;;;;12.34;100.00;102294.25;4958607;28;45545;-78
2024/01/26 05:50:29;;;;;;;;;11.33;9.33;;;;;12.26;100.00;102287.72;4943736;28;45334;-79
2024/01/26 05:52:54;;;;;;;;;13.33;10.67;;;;;12.35;100.00;102308.41;4956459;28;45559;-78
2024/01/26 05:55:20;;;;;;;;;11.33;7.00;;;;;12.39;100.00;102313.00;4970117;28;46489;-78
2024/01/26 05:57:45;;;;;;;;;7.00;7.00;;;;;12.48;100.00;102332.84;4962378;28;45351;-79
2024/01/26 06:00:11;;;;;;;;;10.67;10.00;;;;;12.24;100.00;102290.31;4960291;28;45304;-78
2024/01/26 06:02:36;;;;;;;;;12.00;9.67;;;;;12.39;100.00;102319.22;4938800;28;46493;-77
2024/01/26 06:05:01;;;;;;;;;10.67;10.67;;;;;12.32;100.00;102310.09;4971534;28;58183;-75
2024/01/26 06:07:27;;;;;;;;;5.67;4.33;;;;;12.38;100.00;102322.72;4960827;28;45354;-80
2024/01/26 06:09:52;;;;;;;;;12.67;10.00;;;;;12.12;100.00;102280.94;4964937;28;45781;-78
2024/01/26 06:12:17;;;;;;;;;11.67;11.33;;;;;12.31;100.00;102313.56;4960831;28;46831;-79
2024/01/26 06:14:42;;;;;;;;;9.67;9.67;;;;;12.45;100.00;102342.41;4959327;28;45356;-79
2024/01/26 06:17:08;;;;;;;;;9.67;7.33;;;;;12.23;100.00;102299.09;4964277;28;56675;-79
2024/01/26 06:19:33;;;;;;;;;13.67;10.67;;;;;12.33;100.00;102311.00;4966713;28;49735;-79
2024/01/26 06:21:59;;;;;;;;;7.67;7.67;;;;;12.37;100.00;102319.97;4971303;28;46235;-79
2024/01/26 06:24:24;;;;;;;;;11.33;9.00;;;;;12.34;100.00;102315.44;4968101;28;51341;-78
2024/01/26 06:26:50;;;;;;;;;12.33;9.00;;;;;12.52;100.00;102337.44;4971360;28;45647;-78
2024/01/26 06:29:15;;;;;;;;;12.00;8.33;;;;;12.54;100.00;102350.75;4970142;28;45776;-77
2024/01/26 06:31:40;;;;;;;;;14.67;11.00;;;;;12.36;100.00;102321.72;4967205;28;49743;-75
2024/01/26 06:34:05;;;;;;;;;13.00;10.00;;;;;12.39;100.00;102329.81;4961081;28;45499;-76
2024/01/26 06:36:31;;;;;;;;;12.00;7.00;;;;;12.55;100.00;102349.94;4965399;28;52785;-76
2024/01/26 06:38:56;;;;;;;;;7.00;6.33;;;;;12.55;100.00;102357.88;4963559;28;45412;-75
2024/01/26 06:41:22;;;;;;;;;11.67;8.67;;;;;12.17;100.00;102295.28;4966067;28;55512;-75
2024/01/26 06:43:51;;;;;;;;;12.00;9.00;;;;;12.45;100.00;102337.13;4957558;28;45746;-75
2024/01/26 06:46:23;;;;;;;;;8.67;7.33;;;;;12.40;100.00;102336.00;4948321;28;45408;-75
2024/01/26 06:48:50;;;;;;;;;6.00;6.00;;;;;12.32;100.00;102319.78;4961814;28;45541;-76
2024/01/26 06:51:15;;;;;;;;;2.00;0.67;;;;;12.58;100.00;102370.38;4967659;28;45578;-76
2024/01/26 06:53:41;;;;;;;;;13.33;7.00;;;;;12.48;100.00;102348.75;4962090;28;45414;-78
2024/01/26 06:56:06;;;;;;;;;13.00;8.00;;;;;12.55;100.00;102365.84;4951437;28;45375;-78
2024/01/26 06:58:32;;;;;;;;;9.00;8.00;;;;;12.40;100.00;102328.97;4954186;28;45382;-76
2024/01/26 07:00:58;;;;;;;;;8.00;7.00;;;;;12.57;100.00;102365.88;4965202;28;48468;-76
2024/01/26 07:03:24;;;;;;;;;12.33;10.00;;;;;12.41;100.00;102343.16;4957759;28;45627;-75
2024/01/26 07:05:50;;;;;;;;;10.67;8.33;;;;;12.35;100.00;102322.59;4966366;28;45581;-76
2024/01/26 07:08:16;;;;;;;;;8.33;7.33;;;;;12.59;100.00;102367.75;4957016;28;45544;-76
2024/01/26 07:10:41;;;;;;;;;14.00;8.33;;;;;12.58;100.00;102367.72;4960308;28;45674;-76
2024/01/26 07:13:07;;;;;;;;;11.00;8.33;;;;;12.65;100.00;102380.38;4953523;28;45431;-76
2024/01/26 07:15:32;;;;;;;;;9.33;9.33;;;;;12.58;100.00;102365.06;4940800;28;49574;-76
2024/01/26 07:17:57;;;;;;;;;9.67;8.33;;;;;12.44;100.00;102340.63;4959673;28;45411;-75
2024/01/26 07:20:23;;;;;;;;;10.67;10.33;;;;;12.45;100.00;102355.69;4958371;28;44987;-75
2024/01/26 07:22:49;;;;;;;;;12.33;9.33;;;;;12.50;100.00;102370.94;4955259;28;45488;-76
2024/01/26 07:25:18;;;;;;;;;8.67;7.67;;;;;12.51;100.00;102385.09;4957823;28;45360;-76
2024/01/26 07:27:47;;;;;;;;;15.00;9.00;;;;;12.41;100.00;102373.22;4956960;28;45374;-75
2024/01/26 07:30:13;;;;;;;;;7.67;7.00;;;;;12.43;100.00;102384.78;4957608;28;45422;-76
2024/01/26 07:32:40;;;;;;;;;11.00;11.00;;;;;12.54;100.00;102407.34;4955334;28;45483;-77
2024/01/26 07:35:06;;;;;;;;;20.50;17.25;;;;;12.35;100.00;102386.22;4958076;28;45376;-76
2024/01/26 07:37:32;;;;;;;;;15.67;12.33;;;;;12.46;100.00;102407.88;4953446;28;45542;-76
2024/01/26 07:39:57;;;;;;;;;19.33;16.67;;;;;12.22;100.00;102365.31;4958152;28;45278;-75
2024/01/26 07:42:23;;;;;;;;;6.00;6.00;;;;;12.35;100.00;102396.84;4954447;28;57660;-76
2024/01/26 07:44:48;;;;;;;;;9.33;6.67;;;;;12.32;100.00;102396.66;4957607;28;46981;-84
2024/01/26 07:47:13;;;;;;;;;13.00;11.67;;;;;12.15;100.00;102355.28;4953017;28;45365;-75
2024/01/26 07:49:38;;;;;;;;;9.67;9.00;;;;;12.07;100.00;102347.94;4959678;28;61023;-75
2024/01/26 07:52:04;;;;;;;;;11.00;7.00;;;;;12.41;100.00;102420.06;4955364;28;45572;-79
2024/01/26 07:54:29;;;;;;;;;10.50;8.50;;;;;12.46;100.00;102439.69;4961088;28;44745;-75
2024/01/26 07:56:55;;;;;;;;;8.67;8.33;;;;;12.26;100.00;102409.66;4946510;28;45385;-76
2024/01/26 07:59:20;;;;;;;;;9.00;9.00;;;;;11.90;100.00;102353.31;4966285;28;61737;-76
2024/01/26 08:01:45;;;;;;;;;9.00;9.00;;;;;12.47;100.00;102441.53;4956387;28;45584;-77
2024/01/26 08:04:11;;;;;;;;;10.67;9.00;;;;;12.34;100.00;102426.81;4950747;28;57187;-76
2024/01/26 08:06:36;;;;;;;;;9.00;6.00;;;;;12.32;100.00;102421.47;4954277;28;45402;-75
2024/01/26 08:09:02;;;;;;;;;7.33;6.00;;;;;12.35;100.00;102425.06;4963573;28;45524;-75
2024/01/26 08:11:27;;;;;;;;;7.00;5.33;;;;;12.41;100.00;102451.88;4972370;28;45446;-76
2024/01/26 08:13:53;;;;;;;;;6.33;5.33;;;;;12.30;100.00;102419.59;4929159;28;45254;-76
2024/01/26 08:16:18;;;;;;;;;4.00;2.00;;;;;12.29;100.00;102434.59;4941684;28;45345;-76
2024/01/26 08:18:43;;;;;;;;;5.67;5.00;;;;;12.26;100.00;102423.81;4956016;28;45654;-76
2024/01/26 08:21:10;;;;;;;;;5.00;5.00;;;;;12.39;100.00;102464.16;4959543;28;62564;-77
2024/01/26 08:23:36;;;;;;;;;3.00;3.00;;;;;12.44;100.00;102470.56;4932133;28;45293;-77
2024/01/26 08:26:02;;;;;;;;;4.00;4.00;;;;;12.52;100.00;102488.63;4965617;28;45334;-77
2024/01/26 08:28:27;;;;;;;;;3.67;3.67;;;;;12.34;100.00;102463.03;4954881;28;46349;-77
2024/01/26 08:30:53;;;;;;;;;6.00;6.00;;;;;12.47;100.00;102489.28;4959742;28;56463;-76
2024/01/26 08:33:18;;;;;;;;;7.00;6.00;;;;;12.35;100.00;102476.38;4956517;28;45438;-76
2024/01/26 08:35:43;;;;;;;;;8.67;5.00;;;;;12.47;100.00;102487.53;4959728;28;54214;-76
2024/01/26 08:38:09;;;;;;;;;3.00;3.00;;;;;12.48;100.00;102493.72;4936452;28;45597;-76
2024/01/26 08:40:34;;;;;;;;;20.00;16.25;;;;;12.27;100.00;102462.78;4959714;28;46185;-76
2024/01/26 08:42:59;;;;;;;;;9.33;9.33;;;;;12.32;100.00;102476.22;4960097;28;45470;-76
2024/01/26 08:45:25;;;;;;;;;6.67;4.33;;;;;12.29;100.00;102469.06;4963159;28;45441;-76
2024/01/26 08:47:51;;;;;;;;;13.33;11.00;;;;;12.45;100.00;102506.84;4939582;28;45846;-76
2024/01/26 08:50:17;;;;;;;;;12.00;11.00;;;;;12.43;100.00;102513.81;4963469;28;46220;-77
2024/01/26 08:52:42;;;;;;;;;9.67;7.67;;;;;12.43;100.00;102516.47;4960644;28;45436;-78
2024/01/26 08:55:08;;;;;;;;;47.00;36.50;;;;;12.41;100.00;102516.44;4963488;28;45257;-79
2024/01/26 08:57:33;;;;;;;;;9.33;9.33;;;;;12.36;100.00;102504.72;4961450;28;45461;-78
2024/01/26 09:00:00;;;;;;;;;44.50;36.50;;;;;12.10;100.00;102450.53;4962993;28;45300;-78
2024/01/26 09:02:25;;;;;;;;;38.00;33.25;;;;;12.56;100.00;102536.50;4960992;28;45204;-78
2024/01/26 09:04:53;;;;;;;;;44.75;37.50;;;;;12.26;100.00;102483.91;4963184;28;45196;-78
2024/01/26 09:07:20;;;;;;;;;27.50;25.50;;;;;12.42;100.00;102509.38;4961397;28;45303;-79
2024/01/26 09:09:46;;;;;;;;;71.75;55.25;;;;;12.59;100.00;102541.94;4970934;28;45602;-79
2024/01/26 09:12:11;;;;;;;;;80.00;63.75;;;;;12.48;100.00;102514.94;4973711;28;45468;-79
2024/01/26 09:14:36;;;;;;;;;46.25;35.00;;;;;12.43;100.00;102513.81;4973481;28;45551;-77
2024/01/26 09:17:02;;;;;;;;;41.00;32.75;;;;;12.41;100.00;102508.47;4961297;28;45505;-78
2024/01/26 09:19:27;;;;;;;;;9.00;6.33;;;;;12.47;100.00;102523.75;4963144;28;46193;-77
2024/01/26 09:21:52;;;;;;;;;9.00;9.00;;;;;12.38;100.00;102497.72;4961537;28;45329;-77
2024/01/26 09:24:18;;;;;;;;;18.67;18.33;;;;;12.28;100.00;102483.13;4962776;28;45225;-77
2024/01/26 09:26:43;;;;;;;;;16.33;16.33;;;;;12.46;100.00;102517.53;4961178;28;45313;-77
2024/01/26 09:29:09;;;;;;;;;17.67;13.33;;;;;12.43;100.00;102509.41;4962813;28;45595;-77
2024/01/26 09:31:34;;;;;;;;;7.67;5.00;;;;;12.21;100.00;102477.50;4943285;28;45280;-77
2024/01/26 09:33:59;;;;;;;;;12.33;12.33;;;;;12.53;100.00;102554.09;4934224;28;54079;-78
2024/01/26 09:36:25;;;;;;;;;22.00;19.33;;;;;12.64;100.00;102580.19;4956503;28;50109;-78
2024/01/26 09:38:50;;;;;;;;;7.00;7.00;;;;;12.73;100.00;102586.81;4956905;28;45703;-78
2024/01/26 09:41:17;;;;;;;;;13.00;13.00;;;;;12.64;100.00;102577.56;4962338;28;45244;-78
2024/01/26 09:43:42;;;;;;;;;20.33;17.33;;;;;12.49;100.00;102559.19;4957966;28;45424;-79
2024/01/26 09:46:08;;;;;;;;;12.00;9.50;;;;;12.59;100.00;102589.69;4962334;28;45193;-77
2024/01/26 09:48:34;;;;;;;;;10.67;10.00;;;;;12.66;100.00;102636.88;4955651;28;45532;-77
2024/01/26 09:51:00;;;;;;;;;4.33;3.00;;;;;12.44;100.00;102619.09;4962111;28;45464;-80
2024/01/26 09:53:27;;;;;;;;;3.00;3.00;;;;;12.46;100.00;102630.66;4956684;28;46068;-79
2024/01/26 09:55:52;;;;;;;;;2.00;2.00;;;;;12.24;100.00;102605.81;4962283;28;45419;-80
2024/01/26 09:58:18;;;;;;;;;2.00;2.00;;;;;12.25;100.00;102633.25;4956282;28;45461;-82
2024/01/26 10:00:45;;;;;;;;;4.00;1.00;;;;;12.28;100.00;102639.59;4956264;28;45341;-84
2024/01/26 10:03:11;;;;;;;;;1.67;0.33;;;;;12.05;100.00;102605.78;4955986;28;45533;-82
2024/01/26 10:05:37;;;;;;;;;1.00;1.00;;;;;12.16;100.00;102643.41;4959764;28;45545;-80
2024/01/26 10:08:12;;;;;;;;;2.67;1.00;;;;;11.77;100.00;102592.94;4936726;28;47217;-81
2024/01/26 10:10:38;;;;;;;;;1.33;0.00;;;;;11.98;100.00;102635.47;4946757;28;45588;-80
2024/01/26 10:13:07;;;;;;;;;1.00;1.00;;;;;11.90;100.00;102640.41;4957921;28;45469;-80
2024/01/26 10:15:32;;;;;;;;;2.00;0.67;;;;;11.88;100.00;102642.09;4973918;28;45553;-80
2024/01/26 10:17:58;;;;;;;;;2.00;0.00;;;;;12.05;100.00;102672.97;4946866;28;46843;-80
2024/01/26 10:20:24;;;;;;;;;0.00;0.00;;;;;11.64;100.00;102604.66;4974546;28;49561;-80
2024/01/26 10:22:49;;;;;;;;;1.00;0.00;;;;;11.89;100.00;102633.28;4961933;28;45970;-84
2024/01/26 10:25:15;;;;;;;;;0.00;0.00;;;;;11.76;100.00;102625.53;4954452;28;45739;-77
2024/01/26 10:27:41;;;;;;;;;2.00;1.00;;;;;12.03;100.00;102684.31;4957714;28;46474;-75
2024/01/26 10:30:08;;;;;;;;;0.00;0.00;;;;;12.06;100.00;102693.31;4928895;28;45632;-75
2024/01/26 10:32:35;;;;;;;;;0.67;0.33;;;;;12.06;100.00;102684.47;4957719;28;45352;-78
2024/01/26 10:35:02;;;;;;;;;2.00;0.00;;;;;11.90;100.00;102664.25;4958984;28;45392;-78
2024/01/26 10:37:30;;;;;;;;;0.67;0.67;;;;;11.82;100.00;102650.63;4955295;28;46327;-78
2024/01/26 10:39:57;;;;;;;;;0.00;0.00;;;;;12.09;100.00;102690.81;4962108;28;45446;-78
2024/01/26 10:42:23;;;;;;;;;1.00;0.67;;;;;12.12;100.00;102694.47;4953654;28;45426;-78
2024/01/26 10:44:51;;;;;;;;;3.33;0.00;;;;;12.08;100.00;102682.81;4958372;28;45586;-78
2024/01/26 10:47:17;;;;;;;;;2.67;1.00;;;;;12.04;100.00;102671.16;4953142;28;46549;-78
2024/01/26 10:49:48;;;;;;;;;0.00;0.00;;;;;12.21;100.00;102701.13;4944354;28;45353;-79
2024/01/26 10:52:16;;;;;;;;;1.33;0.00;;;;;12.19;100.00;102697.50;4962025;28;45490;-78
2024/01/26 10:54:41;;;;;;;;;2.33;2.00;;;;;12.45;100.00;102719.94;4967492;28;45414;-79
2024/01/26 10:57:07;;;;;;;;;4.33;3.00;;;;;12.30;100.00;102705.97;4941860;28;47227;-79
2024/01/26 10:59:33;;;;;;;;;2.00;2.00;;;;;12.40;100.00;102716.16;4969766;28;45500;-81
2024/01/26 11:02:01;;;;;;;;;3.00;2.00;;;;;12.40;100.00;102702.00;4960136;28;45619;-80